Météo Nord-Pas-de-Calais   La météo au plus près de chez vous

Station météorologique

Observations météo à Dauphin (04068)

04068001 427 m Dernier relevé à 15:48
30.8°C
Humidité 36 % Vent 25.2 km/h

Journée consultée

Mercredi 2 Septembre 2026

Synthèse de la journée

Périodes de référence en UTC

Température maximale

31.4°C

à 14:54

06h 06h

Température minimale

12.4°C

à 05:00

18h 18h

Rafale maximale

42 km/h

à 15:12

00h 00h

Précipitations

0 mm

Cumul quotidien

06h 06h

Graphiques de la journée

Heure locale Réduire

Données détaillées

Relevés météo

Pas de 6 minutes Afficher les relevés infra-horaires
Relevés météo détaillés à Dauphin pour le Mercredi 2 Septembre 2026
Heure Température °C Point de rosée °C Humidité % Vent moyen (raf.), km/h Précipitations mm
15:48 30.8 °C 12.7 °C 33 % 28 km/h (36 km/h) 0 mm0 mm
15:42 31.1 °C 12.9 °C 33 % 27 km/h (36 km/h) 0 mm0 mm
15:36 31 °C 11.9 °C 31 % 24 km/h (36 km/h) 0 mm0 mm
15:30 31.2 °C 12.5 °C 32 % 25 km/h (35 km/h) 0 mm0 mm
15:24 31.1 °C 11.5 °C 30 % 26 km/h (35 km/h) 0 mm0 mm
15:18 31.1 °C 13.4 °C 34 % 28 km/h (42 km/h) 0 mm0 mm
15:12 30.8 °C 12.7 °C 33 % 30 km/h (42 km/h) 0 mm0 mm
15:06 30.7 °C 13.9 °C 36 % 30 km/h (42 km/h) 0 mm0 mm
15:00 30.9 °C 13.7 °C 35 % 28 km/h (42 km/h) 0 mm0 mm
14:54 31.4 °C 15 °C 37 % 25 km/h (39 km/h) 0 mm0 mm
14:48 31.1 °C 14.3 °C 36 % 25 km/h (40 km/h) 0 mm0 mm
14:42 31 °C 13.7 °C 35 % 23 km/h (40 km/h) 0 mm0 mm
14:36 31.3 °C 13.1 °C 33 % 21 km/h (35 km/h) 0 mm0 mm
14:30 31.1 °C 13.8 °C 35 % 23 km/h (37 km/h) 0 mm0 mm
14:24 31.1 °C 14.3 °C 36 % 22 km/h (37 km/h) 0 mm0 mm
14:18 30.9 °C 13.2 °C 34 % 22 km/h (31 km/h) 0 mm0 mm
14:12 31 °C 13.7 °C 35 % 21 km/h (32 km/h) 0 mm0 mm
14:06 30.6 °C 12.9 °C 34 % 21 km/h (38 km/h) 0 mm0 mm
14:00 30.8 °C 12.7 °C 33 % 22 km/h (38 km/h) 0 mm0 mm
13:54 30.5 °C 12.4 °C 33 % 23 km/h (33 km/h) 0 mm0 mm
13:48 30.6 °C 12.9 °C 34 % 22 km/h (30 km/h) 0 mm0 mm
13:42 30.4 °C 12.3 °C 33 % 21 km/h (30 km/h) 0 mm0 mm
13:36 30.4 °C 12.8 °C 34 % 22 km/h (31 km/h) 0 mm0 mm
13:30 30 °C 12.4 °C 34 % 22 km/h (31 km/h) 0 mm0 mm
13:24 29.8 °C 12.2 °C 34 % 21 km/h (29 km/h) 0 mm0 mm
13:18 29.8 °C 12.2 °C 34 % 22 km/h (30 km/h) 0 mm0 mm
13:12 29.7 °C 11.7 °C 33 % 22 km/h (30 km/h) 0 mm0 mm
13:06 29.5 °C 11.5 °C 33 % 21 km/h (28 km/h) 0 mm0 mm
13:00 29.5 °C 12 °C 34 % 20 km/h (28 km/h) 0 mm0 mm
12:54 29.4 °C 11.4 °C 33 % 21 km/h (28 km/h) 0 mm0 mm
12:48 29.2 °C 11.3 °C 33 % 20 km/h (28 km/h) 0 mm0 mm
12:42 29.4 °C 12.3 °C 35 % 18 km/h (25 km/h) 0 mm0 mm
12:36 29.1 °C 11.6 °C 34 % 17 km/h (22 km/h) 0 mm0 mm
12:30 29 °C 11.5 °C 34 % 16 km/h (23 km/h) 0 mm0 mm
12:24 28.9 °C 11.5 °C 34 % 16 km/h (23 km/h) 0 mm0 mm
12:18 28.6 °C 12.5 °C 37 % 16 km/h (24 km/h) 0 mm0 mm
12:12 28.3 °C 11.8 °C 36 % 16 km/h (25 km/h) 0 mm0 mm
12:06 28.3 °C 10.9 °C 34 % 14 km/h (21 km/h) 0 mm0 mm
12:00 27.9 °C 11 °C 35 % 8 km/h (18 km/h) 0 mm0 mm
11:54 26.9 °C 11.8 °C 39 % 6 km/h (12 km/h) 0 mm0 mm
11:48 26.7 °C 12 °C 40 % 5 km/h (12 km/h) 0 mm0 mm
11:42 26.8 °C 12.1 °C 40 % 3 km/h (9 km/h) 0 mm0 mm
11:36 26.2 °C 12.3 °C 42 % 3 km/h (9 km/h) 0 mm0 mm
11:30 25.6 °C 11.7 °C 42 % 4 km/h (9 km/h) 0 mm0 mm
11:24 25.4 °C 11.2 °C 41 % 5 km/h (11 km/h) 0 mm0 mm
11:18 25.2 °C 11.7 °C 43 % 6 km/h (11 km/h) 0 mm0 mm
11:12 25.4 °C 11.6 °C 42 % 3 km/h (10 km/h) 0 mm0 mm
11:06 25 °C 11.2 °C 42 % 3 km/h (8 km/h) 0 mm0 mm
11:00 24.6 °C 10.5 °C 41 % 3 km/h (8 km/h) 0 mm0 mm
10:54 24.3 °C 10.6 °C 42 % 3 km/h (6 km/h) 0 mm0 mm
10:48 23.9 °C 12.2 °C 48 % 2 km/h (5 km/h) 0 mm0 mm
10:42 23.1 °C 11.5 °C 48 % 3 km/h (5 km/h) 0 mm0 mm
10:36 22.5 °C 11.6 °C 50 % 2 km/h (5 km/h) 0 mm0 mm
10:30 21.8 °C 13.2 °C 58 % 2 km/h (5 km/h) 0 mm0 mm
10:24 21.2 °C 13.6 °C 62 % 3 km/h (8 km/h) 0 mm0 mm
10:18 21.1 °C 14 °C 64 % 3 km/h (8 km/h) 0 mm0 mm
10:12 20.5 °C 13.5 °C 64 % 2 km/h (5 km/h) 0 mm0 mm
10:06 20.5 °C 13.7 °C 65 % 3 km/h (6 km/h) 0 mm0 mm
10:00 20.2 °C 14.1 °C 68 % 3 km/h (8 km/h) 0 mm0 mm
09:54 20.6 °C 13.5 °C 64 % 3 km/h (9 km/h) 0 mm0 mm
09:48 19.6 °C 14.6 °C 73 % 3 km/h (9 km/h) 0 mm0 mm
09:42 19 °C 12.5 °C 66 % 2 km/h (6 km/h) 0 mm0 mm
09:36 18.5 °C 13.4 °C 72 % 0 km/h (4 km/h) 0 mm0 mm
09:30 17.9 °C 13.6 °C 76 % 0 km/h (4 km/h) 0 mm0 mm
09:24 17.1 °C 13 °C 77 % 0 km/h (4 km/h) 0 mm0 mm
09:18 16.4 °C 13.3 °C 82 % 0 km/h (4 km/h) 0 mm0 mm
09:12 16.5 °C 13.6 °C 83 % 2 km/h (5 km/h) 0 mm0 mm
09:06 16.5 °C 13.4 °C 82 % 0 km/h (4 km/h) 0 mm0 mm
09:00 16.4 °C 13.3 °C 82 % 3 km/h (6 km/h) 0 mm0 mm
08:54 16.5 °C 13.8 °C 84 % 3 km/h (6 km/h) 0 mm0 mm
08:48 16.2 °C 13.9 °C 86 % 0 km/h (4 km/h) 0 mm0 mm
08:42 15.4 °C 13.2 °C 87 % 0 km/h (3 km/h) 0 mm0 mm
08:36 15.1 °C 13.1 °C 88 % 0 km/h (4 km/h) 0 mm0 mm
08:30 14.7 °C 13.2 °C 91 % 2 km/h (5 km/h) 0 mm0 mm
08:24 14.4 °C 12.9 °C 91 % 3 km/h (5 km/h) 0 mm0 mm
08:18 14 °C 12.4 °C 90 % 2 km/h (4 km/h) 0 mm0 mm
08:12 14 °C 12.6 °C 91 % 0 km/h (4 km/h) 0 mm0 mm
08:06 13.8 °C 12.5 °C 92 % 2 km/h (3 km/h) 0 mm0 mm
08:00 13.5 °C 12.4 °C 93 % 3 km/h (4 km/h) 0 mm0 mm
07:54 13.3 °C 11.9 °C 91 % 2 km/h (4 km/h) 0 mm0 mm
07:48 13.3 °C 11.7 °C 90 % 2 km/h (4 km/h) 0 mm0 mm
07:42 13.3 °C 11.5 °C 89 % 2 km/h (3 km/h) 0 mm0 mm
07:36 12.9 °C 11.3 °C 90 % 3 km/h (6 km/h) 0 mm0 mm
07:30 12.8 °C 11.2 °C 90 % 5 km/h (7 km/h) 0 mm0 mm
07:24 12.8 °C 11.4 °C 91 % 4 km/h (7 km/h) 0 mm0 mm
07:18 12.9 °C 11.5 °C 91 % 0 km/h (5 km/h) 0 mm0 mm
07:12 12.9 °C 11.6 °C 92 % 2 km/h (4 km/h) 0 mm0 mm
07:06 12.7 °C 11.4 °C 92 % 2 km/h (4 km/h) 0 mm0 mm
07:00 12.7 °C 11.4 °C 92 % 2 km/h (5 km/h) 0 mm0.4 mm
06:54 12.8 °C 11.7 °C 93 % 3 km/h (5 km/h) 0 mm0 mm
06:48 13 °C 11.7 °C 92 % 3 km/h (5 km/h) 0 mm0 mm
06:42 13.3 °C 11.4 °C 88 % 3 km/h (7 km/h) 0 mm0 mm
06:36 13.2 °C 11.8 °C 91 % 5 km/h (8 km/h) 0 mm0 mm
06:30 13.1 °C 11.7 °C 91 % 6 km/h (15 km/h) 0 mm0 mm
06:24 13 °C 11.6 °C 91 % 5 km/h (15 km/h) 0 mm0 mm
06:18 13.1 °C 11.5 °C 90 % 3 km/h (6 km/h) 0.4 mm0 mm
06:12 13 °C 11.4 °C 90 % 3 km/h (6 km/h) 0 mm0 mm
06:06 13.1 °C 11.2 °C 88 % 3 km/h (4 km/h) 0 mm0 mm
06:00 13.1 °C 10.8 °C 86 % 2 km/h (4 km/h) 0 mm0 mm
05:54 13 °C 10.4 °C 84 % 3 km/h (7 km/h) 0 mm0 mm
05:48 12.8 °C 10.9 °C 88 % 6 km/h (10 km/h) 0 mm0 mm
05:42 12.8 °C 10.5 °C 86 % 5 km/h (10 km/h) 0 mm0 mm
05:36 12.7 °C 10.4 °C 86 % 3 km/h (8 km/h) 0 mm0 mm
05:30 12.7 °C 10.2 °C 85 % 4 km/h (8 km/h) 0 mm0 mm
05:24 12.9 °C 10.1 °C 83 % 3 km/h (6 km/h) 0 mm0 mm
05:18 13.1 °C 9.5 °C 79 % 3 km/h (8 km/h) 0 mm0 mm
05:12 12.9 °C 9.7 °C 81 % 6 km/h (9 km/h) 0 mm0 mm
05:06 12.8 °C 10 °C 83 % 5 km/h (9 km/h) 0 mm0 mm
05:00 12.4 °C 10.1 °C 86 % 4 km/h (6 km/h) 0 mm0 mm
04:54 12.5 °C 10 °C 85 % 3 km/h (5 km/h) 0 mm0 mm
04:48 12.9 °C 9.9 °C 82 % 3 km/h (5 km/h) 0 mm0 mm
04:42 13 °C 9.4 °C 79 % 0 km/h (4 km/h) 0 mm0 mm
04:36 13 °C 9.8 °C 81 % 2 km/h (3 km/h) 0 mm0 mm
04:30 13 °C 9.6 °C 80 % 0 km/h (3 km/h) 0 mm0 mm
04:24 13 °C 9.4 °C 79 % 0 km/h (3 km/h) 0 mm0 mm
04:18 12.9 °C 9.5 °C 80 % 0 km/h (2 km/h) 0 mm0 mm
04:12 12.7 °C 9.5 °C 81 % 2 km/h (5 km/h) 0 mm0 mm
04:06 12.9 °C 9.7 °C 81 % 2 km/h (5 km/h) 0 mm0 mm
04:00 13.1 °C 9.5 °C 79 % 0 km/h (3 km/h) 0 mm0 mm
03:54 13 °C 9.4 °C 79 % 0 km/h (4 km/h) 0 mm0 mm
03:48 12.8 °C 9.6 °C 81 % 2 km/h (4 km/h) 0 mm0 mm
03:42 13 °C 9.8 °C 81 % 0 km/h (4 km/h) 0 mm0 mm
03:36 13.2 °C 9.6 °C 79 % 2 km/h (5 km/h) 0 mm0 mm
03:30 13.2 °C 9.6 °C 79 % 4 km/h (6 km/h) 0 mm0 mm
03:24 12.9 °C 9.7 °C 81 % 4 km/h (6 km/h) 0 mm0 mm
03:18 12.9 °C 9.7 °C 81 % 4 km/h (6 km/h) 0 mm0 mm
03:12 12.5 °C 9.7 °C 83 % 3 km/h (6 km/h) 0 mm0 mm
03:06 12.9 °C 9.7 °C 81 % 3 km/h (5 km/h) 0 mm0 mm
03:00 13.1 °C 9.5 °C 79 % 3 km/h (5 km/h) 0 mm0 mm
02:54 13.3 °C 9.5 °C 78 % 4 km/h (7 km/h) 0 mm0 mm
02:48 13.5 °C 9.5 °C 77 % 7 km/h (12 km/h) 0 mm0 mm
02:42 13.3 °C 9.4 °C 77 % 10 km/h (14 km/h) 0 mm0 mm
02:36 13.4 °C 9.4 °C 77 % 7 km/h (14 km/h) 0 mm0 mm
02:30 13.4 °C 9.3 °C 76 % 4 km/h (6 km/h) 0 mm0 mm
02:24 13.5 °C 9.2 °C 75 % 3 km/h (6 km/h) 0 mm0 mm
02:18 13.8 °C 9.4 °C 75 % 3 km/h (6 km/h) 0 mm0 mm
02:12 14.7 °C 8.6 °C 67 % 4 km/h (6 km/h) 0 mm0 mm
02:06 14.6 °C 8.5 °C 67 % 5 km/h (7 km/h) 0 mm0 mm
02:00 14.4 °C 8.8 °C 69 % 4 km/h (6 km/h) 0 mm0 mm
01:54 14.4 °C 9 °C 70 % 5 km/h (10 km/h) 0 mm0 mm
01:48 14.6 °C 9.2 °C 70 % 6 km/h (10 km/h) 0 mm0 mm
01:42 14.6 °C 8.8 °C 68 % 5 km/h (8 km/h) 0 mm0 mm
01:36 14.2 °C 8.8 °C 70 % 4 km/h (6 km/h) 0 mm0 mm
01:30 14.3 °C 10.1 °C 76 % 3 km/h (6 km/h) 0 mm0 mm
01:24 14.6 °C 9.8 °C 73 % 2 km/h (4 km/h) 0 mm0 mm
01:18 14.8 °C 9.8 °C 72 % 3 km/h (8 km/h) 0 mm0 mm
01:12 15.6 °C 9.5 °C 67 % 5 km/h (9 km/h) 0 mm0 mm
01:06 15.6 °C 9 °C 65 % 4 km/h (8 km/h) 0 mm0 mm
01:00 15.7 °C 9.6 °C 67 % 3 km/h (4 km/h) 0 mm0 mm
00:54 15.2 °C 9.5 °C 69 % 4 km/h (8 km/h) 0 mm0 mm
00:48 14.7 °C 9.9 °C 73 % 7 km/h (9 km/h) 0 mm0 mm
00:42 14.9 °C 9.9 °C 72 % 5 km/h (9 km/h) 0 mm0 mm
00:36 15.5 °C 9.6 °C 68 % 3 km/h (5 km/h) 0 mm0 mm
00:30 16.5 °C 8.7 °C 60 % 4 km/h (6 km/h) 0 mm0 mm
00:24 16.5 °C 8.7 °C 60 % 3 km/h (6 km/h) 0 mm0 mm
00:18 16.5 °C 8.9 °C 61 % 2 km/h (5 km/h) 0 mm0 mm
00:12 16.3 °C 9.2 °C 63 % 3 km/h (5 km/h) 0 mm0 mm
00:06 16.2 °C 9.8 °C 66 % 4 km/h (7 km/h) 0 mm0 mm
00:00 16.2 °C 9.4 °C 64 % 5 km/h (8 km/h) 0 mm0 mm

Données via Météo-France

Relevés météo à Dauphin

Cette page rassemble les observations de la station de Dauphin : température, humidité, vent, précipitations et pression atmosphérique. Les graphiques facilitent le suivi de la journée, tandis que le tableau donne accès aux mesures horaires et infra-horaires disponibles.

Pour replacer ces mesures dans leur contexte, consultez la climatologie de Dauphin ainsi que ses normales et records. Retrouvez aussi la carte des observations météo en temps réel.